Quesnel Airport
CYQZ : rendu visible

Aérodrome :











RETROUVEZ-NOUS SUR...

 
LOGIN :

S'inscrire | Disclaimer

   EN    FR    IT 

 









Légende :    VFR   VFR Marginal   IFR   IFR Intensif   IFR Très Intensif
Visi : 
Plafond : 
>= 8 km
>= 3000ft
5 à 8 km
1000 à 3000 ft
1500m à 5 km
500 à 1000 ft
800 à 1500m
200 à 500 ft
< 800m
< 200 ft
Symboles :   Orages  Brouillard  Fortes neiges  Fortes précipitations  Vent > 20 kt






- Altitude de l'aérodrome : 1789 ft
- Code IATA : YQZ


CYQZ - Quesnel

DERNIER METAR :
  • 232000Z AUTO 31006KT 1 1/2SM -SN OVC019 M02/M03 A2970 RMK SLP092

METARs EXPIRÉS :
  • 231923Z AUTO 32006KT 1 3/4SM -SN BKN024 OVC037 M03/M04 A2970 RMK SLP093
  • 231900Z AUTO 34003KT 320V030 5SM -SN OVC038 M03/M06 A2970 RMK SLP093
  • 231837Z AUTO 35002KT 4SM -SN OVC036 M04/M07 A2970 RMK SLP092
  • 231807Z AUTO 35002KT 9SM -SN FEW030 OVC036 M04/M08 A2970 RMK SLP093

TAF TAF CYQZ
Valide du 23 à 19h jusqu'au 24 à 06h UTC


231838Z 2319/2406 VRB03KT P6SM -SN SCT020 OVC040
TEMPO 2319/2321 1SM -SN BKN020 OVC040
FM232100 VRB03KT P6SM -SN SCT006 OVC025
TEMPO 2321/2401 3/4SM -SN BKN006 OVC015
FM240100 VRB03KT P6SM BKN030
TEMPO 2401/2406 3SM -SHSN BR BKN020 RMK FCST BASED ON AUTO OBS. NXT FCST BY 240100Z



MET'MAP, la Météo Aéronautique d'un coup d'oeil ! - Copyright ORBIFLY Décembre 2007 - Disclaimer

ORBIFLY MET'MAP TEAM :

Programmation & Développement : Alexandra Zaïnal
Sur une idée originale de : Baudouin d'Aumeries
Assistance à la programmation : Marc-Olivier Méhu
Soutien technique & logistique : Manuel Goepfert

Contact : metmap@orbifly.com




SOURCES & CREDITS :

   NOAA       Earth
Advisory